sensor_id;sensor_type;location;lat;lon;timestamp;P1;durP1;ratioP1;P2;durP2;ratioP2
15915;SDS011;8057;47.830;-3.870;2023-02-22T00:03:54;29.67;;;25.53;;
15915;SDS011;8057;47.830;-3.870;2023-02-22T00:08:07;36.03;;;28.80;;
15915;SDS011;8057;47.830;-3.870;2023-02-22T00:12:17;31.53;;;27.43;;
15915;SDS011;8057;47.830;-3.870;2023-02-22T00:16:29;36.93;;;29.10;;
15915;SDS011;8057;47.830;-3.870;2023-02-22T00:20:40;33.70;;;28.20;;
15915;SDS011;8057;47.830;-3.870;2023-02-22T00:24:53;35.13;;;31.30;;
15915;SDS011;8057;47.830;-3.870;2023-02-22T00:29:06;33.30;;;27.83;;
15915;SDS011;8057;47.830;-3.870;2023-02-22T00:33:16;34.03;;;28.20;;
15915;SDS011;8057;47.830;-3.870;2023-02-22T00:37:26;35.93;;;30.43;;
15915;SDS011;8057;47.830;-3.870;2023-02-22T00:41:39;39.30;;;30.50;;
15915;SDS011;8057;47.830;-3.870;2023-02-22T00:45:49;39.17;;;31.47;;
15915;SDS011;8057;47.830;-3.870;2023-02-22T00:49:59;40.20;;;31.13;;
15915;SDS011;8057;47.830;-3.870;2023-02-22T00:54:10;37.33;;;31.37;;
15915;SDS011;8057;47.830;-3.870;2023-02-22T00:58:21;38.17;;;30.47;;
15915;SDS011;8057;47.830;-3.870;2023-02-22T01:02:33;34.47;;;28.10;;
15915;SDS011;8057;47.830;-3.870;2023-02-22T01:06:45;37.77;;;29.07;;
15915;SDS011;8057;47.830;-3.870;2023-02-22T01:10:56;35.00;;;28.60;;
15915;SDS011;8057;47.830;-3.870;2023-02-22T01:15:10;41.97;;;30.37;;
15915;SDS011;8057;47.830;-3.870;2023-02-22T01:19:23;38.73;;;29.67;;
15915;SDS011;8057;47.830;-3.870;2023-02-22T01:23:35;36.40;;;28.73;;
15915;SDS011;8057;47.830;-3.870;2023-02-22T01:27:45;36.57;;;28.80;;
15915;SDS011;8057;47.830;-3.870;2023-02-22T01:31:59;37.17;;;29.60;;
15915;SDS011;8057;47.830;-3.870;2023-02-22T01:36:10;32.63;;;28.63;;
15915;SDS011;8057;47.830;-3.870;2023-02-22T01:40:22;37.33;;;29.43;;
15915;SDS011;8057;47.830;-3.870;2023-02-22T01:44:34;36.93;;;29.33;;
15915;SDS011;8057;47.830;-3.870;2023-02-22T01:48:49;38.00;;;28.63;;
15915;SDS011;8057;47.830;-3.870;2023-02-22T01:53:02;34.03;;;26.90;;
15915;SDS011;8057;47.830;-3.870;2023-02-22T01:57:15;36.33;;;28.77;;
15915;SDS011;8057;47.830;-3.870;2023-02-22T02:01:28;32.17;;;27.53;;
15915;SDS011;8057;47.830;-3.870;2023-02-22T02:05:39;32.70;;;27.13;;
15915;SDS011;8057;47.830;-3.870;2023-02-22T02:09:54;33.57;;;29.10;;
15915;SDS011;8057;47.830;-3.870;2023-02-22T02:14:06;32.13;;;27.10;;
15915;SDS011;8057;47.830;-3.870;2023-02-22T02:18:16;34.73;;;29.10;;
15915;SDS011;8057;47.830;-3.870;2023-02-22T02:22:34;33.67;;;28.90;;
15915;SDS011;8057;47.830;-3.870;2023-02-22T02:31:33;37.63;;;28.60;;
15915;SDS011;8057;47.830;-3.870;2023-02-22T02:36:01;34.33;;;29.97;;
15915;SDS011;8057;47.830;-3.870;2023-02-22T02:40:18;40.20;;;29.53;;
15915;SDS011;8057;47.830;-3.870;2023-02-22T02:44:32;34.03;;;28.43;;
15915;SDS011;8057;47.830;-3.870;2023-02-22T02:48:47;34.87;;;28.80;;
15915;SDS011;8057;47.830;-3.870;2023-02-22T02:53:03;33.97;;;28.33;;
15915;SDS011;8057;47.830;-3.870;2023-02-22T02:57:15;35.23;;;27.73;;
15915;SDS011;8057;47.830;-3.870;2023-02-22T03:01:30;31.87;;;27.50;;
15915;SDS011;8057;47.830;-3.870;2023-02-22T03:05:59;36.47;;;30.13;;
15915;SDS011;8057;47.830;-3.870;2023-02-22T03:10:24;42.33;;;31.17;;
15915;SDS011;8057;47.830;-3.870;2023-02-22T03:14:51;35.57;;;28.50;;
15915;SDS011;8057;47.830;-3.870;2023-02-22T03:19:07;32.60;;;27.50;;
15915;SDS011;8057;47.830;-3.870;2023-02-22T03:23:23;36.10;;;28.00;;
15915;SDS011;8057;47.830;-3.870;2023-02-22T03:27:36;33.27;;;27.70;;
15915;SDS011;8057;47.830;-3.870;2023-02-22T03:31:51;36.70;;;28.50;;
15915;SDS011;8057;47.830;-3.870;2023-02-22T03:36:09;38.50;;;28.30;;
15915;SDS011;8057;47.830;-3.870;2023-02-22T03:40:25;35.93;;;27.07;;
15915;SDS011;8057;47.830;-3.870;2023-02-22T03:44:39;37.17;;;28.37;;
15915;SDS011;8057;47.830;-3.870;2023-02-22T03:48:50;36.47;;;27.97;;
15915;SDS011;8057;47.830;-3.870;2023-02-22T03:53:05;34.17;;;28.47;;
15915;SDS011;8057;47.830;-3.870;2023-02-22T03:57:17;30.77;;;26.03;;
15915;SDS011;8057;47.830;-3.870;2023-02-22T04:01:32;35.77;;;27.67;;
15915;SDS011;8057;47.830;-3.870;2023-02-22T04:05:42;32.17;;;26.77;;
15915;SDS011;8057;47.830;-3.870;2023-02-22T04:09:51;36.60;;;26.93;;
15915;SDS011;8057;47.830;-3.870;2023-02-22T04:14:02;32.93;;;25.27;;
15915;SDS011;8057;47.830;-3.870;2023-02-22T04:18:11;33.60;;;26.53;;
15915;SDS011;8057;47.830;-3.870;2023-02-22T04:22:21;31.20;;;25.10;;
15915;SDS011;8057;47.830;-3.870;2023-02-22T04:26:30;30.90;;;24.70;;
15915;SDS011;8057;47.830;-3.870;2023-02-22T04:30:41;28.17;;;21.23;;
15915;SDS011;8057;47.830;-3.870;2023-02-22T04:34:51;21.93;;;18.73;;
15915;SDS011;8057;47.830;-3.870;2023-02-22T04:39:00;21.53;;;18.57;;
15915;SDS011;8057;47.830;-3.870;2023-02-22T04:43:10;20.27;;;17.77;;
15915;SDS011;8057;47.830;-3.870;2023-02-22T04:47:21;21.30;;;17.50;;
15915;SDS011;8057;47.830;-3.870;2023-02-22T04:51:30;19.80;;;17.13;;
15915;SDS011;8057;47.830;-3.870;2023-02-22T04:55:41;20.20;;;16.23;;
15915;SDS011;8057;47.830;-3.870;2023-02-22T04:59:50;16.87;;;15.17;;
15915;SDS011;8057;47.830;-3.870;2023-02-22T05:04:02;15.57;;;13.37;;
15915;SDS011;8057;47.830;-3.870;2023-02-22T05:08:11;13.70;;;12.13;;
15915;SDS011;8057;47.830;-3.870;2023-02-22T05:12:20;15.10;;;11.57;;
15915;SDS011;8057;47.830;-3.870;2023-02-22T05:16:30;12.57;;;10.57;;
15915;SDS011;8057;47.830;-3.870;2023-02-22T05:20:40;11.10;;;9.63;;
15915;SDS011;8057;47.830;-3.870;2023-02-22T05:24:50;9.30;;;8.33;;
15915;SDS011;8057;47.830;-3.870;2023-02-22T05:28:59;8.77;;;7.33;;
15915;SDS011;8057;47.830;-3.870;2023-02-22T05:33:08;8.07;;;7.27;;
15915;SDS011;8057;47.830;-3.870;2023-02-22T05:37:20;9.47;;;7.07;;
15915;SDS011;8057;47.830;-3.870;2023-02-22T05:41:29;9.10;;;7.00;;
15915;SDS011;8057;47.830;-3.870;2023-02-22T05:45:38;7.77;;;6.67;;
15915;SDS011;8057;47.830;-3.870;2023-02-22T05:49:47;8.37;;;6.43;;
15915;SDS011;8057;47.830;-3.870;2023-02-22T05:53:58;8.27;;;6.77;;
15915;SDS011;8057;47.830;-3.870;2023-02-22T05:58:08;8.87;;;7.63;;
15915;SDS011;8057;47.830;-3.870;2023-02-22T06:02:17;10.53;;;7.30;;
15915;SDS011;8057;47.830;-3.870;2023-02-22T06:06:26;7.17;;;6.57;;
15915;SDS011;8057;47.830;-3.870;2023-02-22T06:10:36;6.53;;;5.80;;
15915;SDS011;8057;47.830;-3.870;2023-02-22T06:14:46;6.03;;;5.10;;
15915;SDS011;8057;47.830;-3.870;2023-02-22T06:18:55;5.80;;;5.17;;
15915;SDS011;8057;47.830;-3.870;2023-02-22T06:23:05;6.43;;;5.80;;
15915;SDS011;8057;47.830;-3.870;2023-02-22T06:27:16;6.90;;;5.80;;
15915;SDS011;8057;47.830;-3.870;2023-02-22T06:31:25;5.67;;;4.80;;
15915;SDS011;8057;47.830;-3.870;2023-02-22T06:35:34;5.33;;;4.93;;
15915;SDS011;8057;47.830;-3.870;2023-02-22T06:39:43;7.70;;;5.73;;
15915;SDS011;8057;47.830;-3.870;2023-02-22T06:43:54;6.63;;;6.00;;
15915;SDS011;8057;47.830;-3.870;2023-02-22T06:48:03;8.97;;;6.20;;
15915;SDS011;8057;47.830;-3.870;2023-02-22T06:52:12;6.87;;;5.97;;
15915;SDS011;8057;47.830;-3.870;2023-02-22T06:56:21;5.10;;;4.60;;
15915;SDS011;8057;47.830;-3.870;2023-02-22T07:00:32;4.67;;;3.90;;
15915;SDS011;8057;47.830;-3.870;2023-02-22T07:04:41;6.60;;;4.10;;
15915;SDS011;8057;47.830;-3.870;2023-02-22T07:08:53;4.97;;;4.47;;
15915;SDS011;8057;47.830;-3.870;2023-02-22T07:13:02;6.07;;;4.20;;
15915;SDS011;8057;47.830;-3.870;2023-02-22T07:17:15;5.10;;;4.37;;
15915;SDS011;8057;47.830;-3.870;2023-02-22T07:21:24;3.60;;;3.30;;
15915;SDS011;8057;47.830;-3.870;2023-02-22T07:25:33;3.37;;;3.07;;
15915;SDS011;8057;47.830;-3.870;2023-02-22T07:29:42;2.60;;;2.40;;
15915;SDS011;8057;47.830;-3.870;2023-02-22T07:33:54;2.40;;;2.20;;
15915;SDS011;8057;47.830;-3.870;2023-02-22T07:38:03;3.20;;;2.23;;
15915;SDS011;8057;47.830;-3.870;2023-02-22T07:42:13;3.13;;;2.70;;
15915;SDS011;8057;47.830;-3.870;2023-02-22T07:46:23;3.97;;;2.00;;
15915;SDS011;8057;47.830;-3.870;2023-02-22T07:50:34;2.13;;;1.23;;
15915;SDS011;8057;47.830;-3.870;2023-02-22T07:54:44;2.07;;;1.00;;
15915;SDS011;8057;47.830;-3.870;2023-02-22T07:58:54;4.70;;;0.90;;
15915;SDS011;8057;47.830;-3.870;2023-02-22T08:03:04;2.60;;;0.97;;
15915;SDS011;8057;47.830;-3.870;2023-02-22T08:07:16;4.57;;;1.30;;
15915;SDS011;8057;47.830;-3.870;2023-02-22T08:11:25;3.23;;;1.17;;
15915;SDS011;8057;47.830;-3.870;2023-02-22T08:15:36;3.40;;;1.07;;
15915;SDS011;8057;47.830;-3.870;2023-02-22T08:19:46;4.80;;;0.93;;
15915;SDS011;8057;47.830;-3.870;2023-02-22T08:23:57;3.50;;;1.13;;
15915;SDS011;8057;47.830;-3.870;2023-02-22T08:28:07;7.27;;;1.90;;
15915;SDS011;8057;47.830;-3.870;2023-02-22T08:32:17;3.83;;;1.20;;
15915;SDS011;8057;47.830;-3.870;2023-02-22T08:36:27;5.07;;;1.40;;
15915;SDS011;8057;47.830;-3.870;2023-02-22T08:40:40;6.63;;;2.00;;
15915;SDS011;8057;47.830;-3.870;2023-02-22T08:44:49;7.40;;;1.80;;
15915;SDS011;8057;47.830;-3.870;2023-02-22T08:48:58;9.13;;;1.93;;
15915;SDS011;8057;47.830;-3.870;2023-02-22T08:53:09;7.37;;;1.60;;
15915;SDS011;8057;47.830;-3.870;2023-02-22T08:57:21;7.63;;;1.83;;
15915;SDS011;8057;47.830;-3.870;2023-02-22T09:01:31;8.37;;;1.83;;
15915;SDS011;8057;47.830;-3.870;2023-02-22T09:05:41;7.00;;;1.70;;
15915;SDS011;8057;47.830;-3.870;2023-02-22T09:09:51;7.17;;;1.73;;
15915;SDS011;8057;47.830;-3.870;2023-02-22T09:14:02;10.10;;;2.30;;
15915;SDS011;8057;47.830;-3.870;2023-02-22T09:18:11;8.23;;;2.03;;
15915;SDS011;8057;47.830;-3.870;2023-02-22T09:22:23;7.33;;;2.13;;
15915;SDS011;8057;47.830;-3.870;2023-02-22T09:26:35;8.03;;;2.57;;
15915;SDS011;8057;47.830;-3.870;2023-02-22T09:30:47;7.80;;;2.00;;
15915;SDS011;8057;47.830;-3.870;2023-02-22T09:34:56;7.07;;;2.10;;
15915;SDS011;8057;47.830;-3.870;2023-02-22T09:39:06;9.03;;;1.97;;
15915;SDS011;8057;47.830;-3.870;2023-02-22T09:43:20;10.17;;;2.47;;
15915;SDS011;8057;47.830;-3.870;2023-02-22T09:47:40;7.90;;;2.30;;
15915;SDS011;8057;47.830;-3.870;2023-02-22T09:51:54;6.97;;;1.80;;
15915;SDS011;8057;47.830;-3.870;2023-02-22T09:56:08;8.57;;;2.23;;
15915;SDS011;8057;47.830;-3.870;2023-02-22T10:00:25;8.37;;;2.13;;
15915;SDS011;8057;47.830;-3.870;2023-02-22T10:04:41;6.97;;;1.80;;
15915;SDS011;8057;47.830;-3.870;2023-02-22T10:08:58;10.70;;;2.47;;
15915;SDS011;8057;47.830;-3.870;2023-02-22T10:13:15;11.77;;;3.00;;
15915;SDS011;8057;47.830;-3.870;2023-02-22T10:17:34;10.70;;;2.33;;
15915;SDS011;8057;47.830;-3.870;2023-02-22T10:21:53;8.53;;;2.67;;
15915;SDS011;8057;47.830;-3.870;2023-02-22T10:26:13;10.20;;;2.20;;
15915;SDS011;8057;47.830;-3.870;2023-02-22T10:30:25;9.50;;;2.20;;
15915;SDS011;8057;47.830;-3.870;2023-02-22T10:34:40;8.53;;;1.87;;
15915;SDS011;8057;47.830;-3.870;2023-02-22T10:38:56;9.63;;;2.37;;
15915;SDS011;8057;47.830;-3.870;2023-02-22T10:43:07;8.47;;;2.03;;
15915;SDS011;8057;47.830;-3.870;2023-02-22T10:47:19;6.73;;;2.17;;
15915;SDS011;8057;47.830;-3.870;2023-02-22T10:51:29;9.30;;;1.87;;
15915;SDS011;8057;47.830;-3.870;2023-02-22T10:56:03;9.23;;;2.20;;
15915;SDS011;8057;47.830;-3.870;2023-02-22T11:00:15;9.53;;;2.50;;
15915;SDS011;8057;47.830;-3.870;2023-02-22T11:04:26;6.33;;;1.47;;
15915;SDS011;8057;47.830;-3.870;2023-02-22T11:08:51;8.80;;;2.53;;
15915;SDS011;8057;47.830;-3.870;2023-02-22T11:13:22;8.70;;;2.00;;
15915;SDS011;8057;47.830;-3.870;2023-02-22T11:17:33;4.57;;;1.70;;
15915;SDS011;8057;47.830;-3.870;2023-02-22T11:21:42;5.70;;;1.80;;
15915;SDS011;8057;47.830;-3.870;2023-02-22T11:25:58;8.57;;;1.40;;
15915;SDS011;8057;47.830;-3.870;2023-02-22T11:30:25;4.27;;;1.40;;
15915;SDS011;8057;47.830;-3.870;2023-02-22T11:34:37;5.27;;;1.40;;
15915;SDS011;8057;47.830;-3.870;2023-02-22T11:38:52;5.50;;;1.60;;
15915;SDS011;8057;47.830;-3.870;2023-02-22T11:43:08;4.43;;;1.30;;
15915;SDS011;8057;47.830;-3.870;2023-02-22T11:47:23;4.73;;;1.53;;
15915;SDS011;8057;47.830;-3.870;2023-02-22T11:51:35;5.27;;;1.43;;
15915;SDS011;8057;47.830;-3.870;2023-02-22T12:00:24;3.43;;;1.13;;
15915;SDS011;8057;47.830;-3.870;2023-02-22T12:04:46;4.43;;;1.17;;
15915;SDS011;8057;47.830;-3.870;2023-02-22T12:09:15;4.37;;;1.40;;
15915;SDS011;8057;47.830;-3.870;2023-02-22T12:13:49;6.30;;;1.50;;
15915;SDS011;8057;47.830;-3.870;2023-02-22T12:18:19;6.27;;;1.27;;
15915;SDS011;8057;47.830;-3.870;2023-02-22T12:22:37;5.07;;;1.47;;
15915;SDS011;8057;47.830;-3.870;2023-02-22T12:27:02;5.77;;;1.50;;
15915;SDS011;8057;47.830;-3.870;2023-02-22T12:31:17;4.27;;;1.50;;
15915;SDS011;8057;47.830;-3.870;2023-02-22T12:35:30;3.23;;;0.97;;
15915;SDS011;8057;47.830;-3.870;2023-02-22T12:39:48;3.10;;;1.00;;
15915;SDS011;8057;47.830;-3.870;2023-02-22T12:44:07;5.20;;;1.30;;
15915;SDS011;8057;47.830;-3.870;2023-02-22T12:48:29;4.03;;;1.40;;
15915;SDS011;8057;47.830;-3.870;2023-02-22T12:52:45;6.87;;;1.63;;
15915;SDS011;8057;47.830;-3.870;2023-02-22T12:57:04;4.80;;;1.30;;
15915;SDS011;8057;47.830;-3.870;2023-02-22T13:01:19;4.20;;;1.20;;
15915;SDS011;8057;47.830;-3.870;2023-02-22T13:05:33;4.20;;;1.27;;
15915;SDS011;8057;47.830;-3.870;2023-02-22T13:09:51;4.93;;;1.90;;
15915;SDS011;8057;47.830;-3.870;2023-02-22T13:14:14;2.93;;;2.23;;
15915;SDS011;8057;47.830;-3.870;2023-02-22T13:18:38;5.57;;;2.20;;
15915;SDS011;8057;47.830;-3.870;2023-02-22T13:22:56;4.63;;;1.40;;
15915;SDS011;8057;47.830;-3.870;2023-02-22T13:27:11;5.57;;;1.40;;
15915;SDS011;8057;47.830;-3.870;2023-02-22T13:31:33;3.27;;;1.30;;
15915;SDS011;8057;47.830;-3.870;2023-02-22T13:36:07;3.70;;;1.60;;
15915;SDS011;8057;47.830;-3.870;2023-02-22T13:50:07;8.17;;;2.07;;
15915;SDS011;8057;47.830;-3.870;2023-02-22T13:54:33;8.00;;;1.90;;
15915;SDS011;8057;47.830;-3.870;2023-02-22T13:58:48;9.17;;;2.67;;
15915;SDS011;8057;47.830;-3.870;2023-02-22T14:03:00;5.80;;;2.07;;
15915;SDS011;8057;47.830;-3.870;2023-02-22T14:12:07;4.30;;;1.53;;
15915;SDS011;8057;47.830;-3.870;2023-02-22T14:16:18;6.77;;;2.30;;
15915;SDS011;8057;47.830;-3.870;2023-02-22T14:20:29;3.77;;;0.90;;
15915;SDS011;8057;47.830;-3.870;2023-02-22T14:24:43;3.93;;;1.17;;
15915;SDS011;8057;47.830;-3.870;2023-02-22T14:28:57;3.07;;;1.07;;
15915;SDS011;8057;47.830;-3.870;2023-02-22T14:37:55;3.27;;;1.10;;
15915;SDS011;8057;47.830;-3.870;2023-02-22T14:42:09;2.93;;;0.90;;
15915;SDS011;8057;47.830;-3.870;2023-02-22T14:46:25;3.43;;;0.80;;
15915;SDS011;8057;47.830;-3.870;2023-02-22T14:50:40;3.53;;;1.20;;
15915;SDS011;8057;47.830;-3.870;2023-02-22T14:54:55;3.10;;;1.23;;
15915;SDS011;8057;47.830;-3.870;2023-02-22T14:59:13;6.13;;;2.50;;
15915;SDS011;8057;47.830;-3.870;2023-02-22T15:03:27;2.70;;;1.20;;
15915;SDS011;8057;47.830;-3.870;2023-02-22T15:07:49;3.63;;;1.13;;
15915;SDS011;8057;47.830;-3.870;2023-02-22T15:12:10;4.50;;;1.20;;
15915;SDS011;8057;47.830;-3.870;2023-02-22T15:16:24;6.73;;;1.40;;
15915;SDS011;8057;47.830;-3.870;2023-02-22T15:20:37;5.27;;;1.77;;
15915;SDS011;8057;47.830;-3.870;2023-02-22T15:24:54;6.63;;;2.10;;
15915;SDS011;8057;47.830;-3.870;2023-02-22T15:29:06;6.47;;;2.00;;
15915;SDS011;8057;47.830;-3.870;2023-02-22T15:33:18;5.33;;;1.80;;
15915;SDS011;8057;47.830;-3.870;2023-02-22T15:37:32;3.43;;;1.57;;
15915;SDS011;8057;47.830;-3.870;2023-02-22T15:41:41;6.60;;;1.60;;
15915;SDS011;8057;47.830;-3.870;2023-02-22T15:45:50;4.00;;;2.10;;
15915;SDS011;8057;47.830;-3.870;2023-02-22T15:50:13;5.17;;;2.10;;
15915;SDS011;8057;47.830;-3.870;2023-02-22T15:54:33;4.50;;;1.97;;
15915;SDS011;8057;47.830;-3.870;2023-02-22T15:58:49;4.10;;;1.90;;
15915;SDS011;8057;47.830;-3.870;2023-02-22T16:02:59;4.57;;;2.10;;
15915;SDS011;8057;47.830;-3.870;2023-02-22T16:07:10;5.00;;;1.50;;
15915;SDS011;8057;47.830;-3.870;2023-02-22T16:11:28;2.57;;;1.30;;
15915;SDS011;8057;47.830;-3.870;2023-02-22T16:15:40;4.60;;;1.30;;
15915;SDS011;8057;47.830;-3.870;2023-02-22T16:19:49;6.60;;;1.40;;
15915;SDS011;8057;47.830;-3.870;2023-02-22T16:23:59;6.07;;;1.53;;
15915;SDS011;8057;47.830;-3.870;2023-02-22T16:28:26;4.27;;;1.43;;
15915;SDS011;8057;47.830;-3.870;2023-02-22T16:32:39;4.43;;;1.40;;
15915;SDS011;8057;47.830;-3.870;2023-02-22T16:36:49;5.10;;;1.07;;
15915;SDS011;8057;47.830;-3.870;2023-02-22T16:40:58;4.67;;;1.10;;
15915;SDS011;8057;47.830;-3.870;2023-02-22T16:45:13;4.30;;;0.93;;
15915;SDS011;8057;47.830;-3.870;2023-02-22T16:49:23;4.23;;;1.60;;
15915;SDS011;8057;47.830;-3.870;2023-02-22T16:53:32;4.57;;;1.60;;
15915;SDS011;8057;47.830;-3.870;2023-02-22T16:57:42;3.83;;;1.67;;
15915;SDS011;8057;47.830;-3.870;2023-02-22T17:01:53;4.00;;;1.50;;
15915;SDS011;8057;47.830;-3.870;2023-02-22T17:06:04;5.43;;;1.60;;
15915;SDS011;8057;47.830;-3.870;2023-02-22T17:10:16;4.87;;;1.80;;
15915;SDS011;8057;47.830;-3.870;2023-02-22T17:14:26;5.77;;;3.10;;
15915;SDS011;8057;47.830;-3.870;2023-02-22T17:18:40;4.60;;;1.50;;
15915;SDS011;8057;47.830;-3.870;2023-02-22T17:22:51;2.97;;;1.60;;
15915;SDS011;8057;47.830;-3.870;2023-02-22T17:27:00;4.70;;;2.10;;
15915;SDS011;8057;47.830;-3.870;2023-02-22T17:31:14;5.10;;;1.73;;
15915;SDS011;8057;47.830;-3.870;2023-02-22T17:35:29;5.67;;;1.60;;
15915;SDS011;8057;47.830;-3.870;2023-02-22T17:39:42;5.07;;;1.63;;
15915;SDS011;8057;47.830;-3.870;2023-02-22T17:43:52;8.23;;;2.33;;
15915;SDS011;8057;47.830;-3.870;2023-02-22T17:48:03;4.20;;;1.50;;
15915;SDS011;8057;47.830;-3.870;2023-02-22T17:52:15;6.23;;;2.07;;
15915;SDS011;8057;47.830;-3.870;2023-02-22T17:56:24;3.90;;;2.07;;
15915;SDS011;8057;47.830;-3.870;2023-02-22T18:00:36;3.63;;;2.00;;
15915;SDS011;8057;47.830;-3.870;2023-02-22T18:04:47;7.80;;;2.23;;
15915;SDS011;8057;47.830;-3.870;2023-02-22T18:08:59;5.10;;;2.10;;
15915;SDS011;8057;47.830;-3.870;2023-02-22T18:13:17;6.50;;;2.20;;
15915;SDS011;8057;47.830;-3.870;2023-02-22T18:17:28;7.97;;;2.30;;
15915;SDS011;8057;47.830;-3.870;2023-02-22T18:21:38;6.27;;;2.50;;
15915;SDS011;8057;47.830;-3.870;2023-02-22T18:25:51;8.20;;;2.50;;
15915;SDS011;8057;47.830;-3.870;2023-02-22T18:30:16;6.57;;;2.83;;
15915;SDS011;8057;47.830;-3.870;2023-02-22T18:34:27;5.67;;;2.00;;
15915;SDS011;8057;47.830;-3.870;2023-02-22T18:38:39;7.17;;;2.80;;
15915;SDS011;8057;47.830;-3.870;2023-02-22T18:42:54;5.60;;;3.67;;
15915;SDS011;8057;47.830;-3.870;2023-02-22T18:47:04;6.43;;;3.87;;
15915;SDS011;8057;47.830;-3.870;2023-02-22T18:51:15;8.53;;;3.37;;
15915;SDS011;8057;47.830;-3.870;2023-02-22T18:55:25;6.93;;;2.60;;
15915;SDS011;8057;47.830;-3.870;2023-02-22T18:59:36;6.47;;;2.47;;
15915;SDS011;8057;47.830;-3.870;2023-02-22T19:03:45;9.87;;;2.67;;
15915;SDS011;8057;47.830;-3.870;2023-02-22T19:07:54;6.33;;;2.53;;
15915;SDS011;8057;47.830;-3.870;2023-02-22T19:12:04;6.30;;;2.90;;
15915;SDS011;8057;47.830;-3.870;2023-02-22T19:16:16;5.40;;;2.37;;
15915;SDS011;8057;47.830;-3.870;2023-02-22T19:20:27;6.87;;;3.00;;
15915;SDS011;8057;47.830;-3.870;2023-02-22T19:24:39;7.33;;;3.37;;
15915;SDS011;8057;47.830;-3.870;2023-02-22T19:28:49;6.80;;;3.30;;
15915;SDS011;8057;47.830;-3.870;2023-02-22T19:33:00;5.80;;;3.47;;
15915;SDS011;8057;47.830;-3.870;2023-02-22T19:37:10;9.53;;;4.23;;
15915;SDS011;8057;47.830;-3.870;2023-02-22T19:41:21;5.17;;;3.23;;
15915;SDS011;8057;47.830;-3.870;2023-02-22T19:45:31;8.30;;;3.50;;
15915;SDS011;8057;47.830;-3.870;2023-02-22T19:49:41;10.70;;;3.50;;
15915;SDS011;8057;47.830;-3.870;2023-02-22T19:53:50;6.93;;;3.10;;
15915;SDS011;8057;47.830;-3.870;2023-02-22T19:58:01;6.50;;;3.50;;
15915;SDS011;8057;47.830;-3.870;2023-02-22T20:02:10;8.90;;;3.57;;
15915;SDS011;8057;47.830;-3.870;2023-02-22T20:06:22;7.40;;;3.27;;
15915;SDS011;8057;47.830;-3.870;2023-02-22T20:10:34;7.43;;;4.00;;
15915;SDS011;8057;47.830;-3.870;2023-02-22T20:14:44;8.57;;;3.67;;
15915;SDS011;8057;47.830;-3.870;2023-02-22T20:18:54;7.47;;;4.07;;
15915;SDS011;8057;47.830;-3.870;2023-02-22T20:23:05;9.07;;;3.83;;
15915;SDS011;8057;47.830;-3.870;2023-02-22T20:27:15;10.27;;;3.93;;
15915;SDS011;8057;47.830;-3.870;2023-02-22T20:31:26;7.53;;;3.83;;
15915;SDS011;8057;47.830;-3.870;2023-02-22T20:35:36;8.63;;;3.77;;
15915;SDS011;8057;47.830;-3.870;2023-02-22T20:39:48;5.97;;;3.33;;
15915;SDS011;8057;47.830;-3.870;2023-02-22T20:43:59;8.57;;;3.67;;
15915;SDS011;8057;47.830;-3.870;2023-02-22T20:48:09;7.63;;;3.13;;
15915;SDS011;8057;47.830;-3.870;2023-02-22T20:52:18;9.43;;;3.67;;
15915;SDS011;8057;47.830;-3.870;2023-02-22T20:56:29;9.97;;;3.77;;
15915;SDS011;8057;47.830;-3.870;2023-02-22T21:00:40;9.50;;;3.80;;
15915;SDS011;8057;47.830;-3.870;2023-02-22T21:04:49;8.07;;;4.77;;
15915;SDS011;8057;47.830;-3.870;2023-02-22T21:08:58;10.07;;;4.03;;
15915;SDS011;8057;47.830;-3.870;2023-02-22T21:13:10;5.10;;;3.43;;
15915;SDS011;8057;47.830;-3.870;2023-02-22T21:17:20;7.30;;;3.27;;
15915;SDS011;8057;47.830;-3.870;2023-02-22T21:21:34;7.40;;;3.40;;
15915;SDS011;8057;47.830;-3.870;2023-02-22T21:25:48;8.93;;;3.60;;
15915;SDS011;8057;47.830;-3.870;2023-02-22T21:30:01;8.23;;;3.60;;
15915;SDS011;8057;47.830;-3.870;2023-02-22T21:34:11;7.37;;;4.93;;
15915;SDS011;8057;47.830;-3.870;2023-02-22T21:38:23;9.00;;;4.27;;
15915;SDS011;8057;47.830;-3.870;2023-02-22T21:42:33;6.63;;;3.80;;
15915;SDS011;8057;47.830;-3.870;2023-02-22T21:46:45;6.23;;;3.10;;
15915;SDS011;8057;47.830;-3.870;2023-02-22T21:50:56;6.80;;;3.20;;
15915;SDS011;8057;47.830;-3.870;2023-02-22T21:55:07;8.67;;;3.00;;
15915;SDS011;8057;47.830;-3.870;2023-02-22T21:59:18;7.43;;;3.33;;
15915;SDS011;8057;47.830;-3.870;2023-02-22T22:03:31;7.67;;;3.53;;
15915;SDS011;8057;47.830;-3.870;2023-02-22T22:07:42;7.77;;;3.00;;
15915;SDS011;8057;47.830;-3.870;2023-02-22T22:11:52;7.70;;;3.40;;
15915;SDS011;8057;47.830;-3.870;2023-02-22T22:16:05;8.30;;;3.60;;
15915;SDS011;8057;47.830;-3.870;2023-02-22T22:20:17;7.17;;;3.73;;
15915;SDS011;8057;47.830;-3.870;2023-02-22T22:24:27;5.20;;;3.57;;
15915;SDS011;8057;47.830;-3.870;2023-02-22T22:28:38;6.57;;;3.80;;
15915;SDS011;8057;47.830;-3.870;2023-02-22T22:32:49;7.80;;;4.80;;
15915;SDS011;8057;47.830;-3.870;2023-02-22T22:37:00;7.23;;;4.73;;
15915;SDS011;8057;47.830;-3.870;2023-02-22T22:41:09;5.93;;;3.97;;
15915;SDS011;8057;47.830;-3.870;2023-02-22T22:45:19;8.00;;;5.07;;
15915;SDS011;8057;47.830;-3.870;2023-02-22T22:49:29;6.90;;;4.87;;
15915;SDS011;8057;47.830;-3.870;2023-02-22T22:53:41;9.57;;;4.77;;
15915;SDS011;8057;47.830;-3.870;2023-02-22T22:57:51;10.40;;;4.97;;
15915;SDS011;8057;47.830;-3.870;2023-02-22T23:02:01;9.13;;;4.43;;
15915;SDS011;8057;47.830;-3.870;2023-02-22T23:06:17;6.57;;;4.27;;
15915;SDS011;8057;47.830;-3.870;2023-02-22T23:10:32;13.30;;;4.17;;
15915;SDS011;8057;47.830;-3.870;2023-02-22T23:14:45;8.70;;;4.60;;
15915;SDS011;8057;47.830;-3.870;2023-02-22T23:18:57;7.97;;;5.47;;
15915;SDS011;8057;47.830;-3.870;2023-02-22T23:23:07;7.77;;;4.80;;
15915;SDS011;8057;47.830;-3.870;2023-02-22T23:27:22;6.80;;;4.33;;
15915;SDS011;8057;47.830;-3.870;2023-02-22T23:31:31;8.83;;;5.23;;
15915;SDS011;8057;47.830;-3.870;2023-02-22T23:35:46;8.87;;;5.23;;
15915;SDS011;8057;47.830;-3.870;2023-02-22T23:39:55;8.53;;;5.33;;
15915;SDS011;8057;47.830;-3.870;2023-02-22T23:44:08;11.57;;;6.07;;
15915;SDS011;8057;47.830;-3.870;2023-02-22T23:48:23;8.40;;;5.30;;
15915;SDS011;8057;47.830;-3.870;2023-02-22T23:52:35;9.30;;;4.67;;
15915;SDS011;8057;47.830;-3.870;2023-02-22T23:56:45;9.07;;;5.17;;
